CYYRBGBW

Guest
Details From CYYR - Goose Bay
To BGBW - Narsarsuaq
Flight Number -
Tags decoded
Created
Modified
Stats Distance 712 nm / 1,319 km
Max Altitude 0 ft / 0 m
Waypoints 7
Social Downloads 1
Likes 0
Share VATSIM

Download

Looking for another format? Having issues loading an existing format? Contact us
Advertisement - Login to hide

Notes

Requested: CYYR YR BR4 HO 5E22 5950N SI BGBW

Route

CYYR YR BR4 HO 5E22 5950N SI BGBW

ID Type Via Altitude Latitude Longitude Leg Dist Tot Dist Heading (true) Name
O CYYR APT - 0 ft / 0 m 53.31882˚ -60.42389˚ - 0 nm - Goose Bay
YR NDB - 0 ft / 0 m 53.33833˚ -60.36667˚ 2 nm 2 nm 60° / 60° GOOSE NDB
HO NDB BR4 (AWY-LO) 0 ft / 0 m 55.45750˚ -60.20917˚ 127 nm 129 nm 2° / 3° HOPEDALE NDB
PORGY FIX 5E22 (AWY-HI) 0 ft / 0 m 56.31667˚ -58.08333˚ 88 nm 218 nm 53° / 55° -
5950N FIX 5E22 (AWY-HI) 0 ft / 0 m 59.00000˚ -50.00000˚ 305 nm 523 nm 55° / 62° -
SI NDB - 0 ft / 0 m 60.68167˚ -46.59611˚ 144 nm 667 nm 44° / 47° SIMIUTAQ NDB
O BGBW APT - 0 ft / 0 m 61.16052˚ -45.42598˚ 44 nm 712 nm 49° / 50° Narsarsuaq

Altitude Profile

Advertisement - Login to hide

Weather


0- 5 10 15 20 25 30 35+ Temperature / ° C

Clouds and Precipitation
Forecast for 2018-05-27 12:00 UTC. Updated 5 hours ago

Ground ~20,000 ft ~40,000 ft Winds

CYYR

Details ICAO CYYR (YYR)
Name Goose Bay
Region Canada
Timezone America/Goose_Bay (UTC-3.0)
Stats Elevation 160 ft / 49 m (AMSL)
Location 53.318820° -60.423890°
Runways 2
Magnetic Variation 20.867° W

METAR

CYYR 271600Z 08005KT 15SM FEW060 FEW270 08/M07 A3019 RMK CF1CI1 SLP227

Decode

TAF

TAF CYYR 271130Z 2712/2812 31010KT P6SM SCT030 TEMPO 2712/2724 BKN030 FM280000 VRB03KT P6SM FEW120 SCT200 RMK NXT FCST BY 271800Z

Decode

Departure Runways

ID Width Length Bearing (true) Bearing (mag) Surface Threshold Offset Overrun Length
08 209 ft / 64 m 11,055 ft / 3,369 m 54.70° 75.57° Asphalt 0 ft / 0 m 1,000 ft / 305 m
16 200 ft / 61 m 9,515 ft / 2,900 m 132.96° 153.83° Asphalt 0 ft / 0 m 0 ft / 0 m
26 209 ft / 64 m 11,055 ft / 3,369 m 234.73° 255.60° Asphalt 0 ft / 0 m 1,000 ft / 305 m
34 200 ft / 61 m 9,515 ft / 2,900 m 312.99° 333.86° Asphalt 0 ft / 0 m 500 ft / 152 m

BGBW

Details ICAO BGBW (UAK)
Name Narsarsuaq
Region Greenland
Timezone America/Godthab (UTC-2.0)
Stats Elevation 112 ft / 34 m (AMSL)
Location 61.160516° -45.425976°
Runways 1
Magnetic Variation 22.771° W

METAR

BGBW 271550Z 24006KT 200V290 9999 SCT038 BKN053 04/M05 Q1014

Decode

TAF

Not found

Destination Runways

ID Width Length Bearing (true) Bearing (mag) Surface Threshold Offset Overrun Length
07 148 ft / 45 m 5,921 ft / 1,805 m 40.57° 63.34° Concrete 0 ft / 0 m 0 ft / 0 m
25 148 ft / 45 m 5,921 ft / 1,805 m 220.58° 243.35° Concrete 0 ft / 0 m 279 ft / 85 m

Popular Alternatives